sensor_id;sensor_type;location;lat;lon;timestamp;P1;durP1;ratioP1;P2;durP2;ratioP2
11827;SDS011;5971;49.646;8.568;2023-08-08T00:01:50;5.65;;;2.80;;
11827;SDS011;5971;49.646;8.568;2023-08-08T00:04:52;4.97;;;2.72;;
11827;SDS011;5971;49.646;8.568;2023-08-08T00:07:53;4.07;;;2.88;;
11827;SDS011;5971;49.646;8.568;2023-08-08T00:10:54;4.57;;;3.10;;
11827;SDS011;5971;49.646;8.568;2023-08-08T00:13:56;4.80;;;3.10;;
11827;SDS011;5971;49.646;8.568;2023-08-08T00:16:57;5.38;;;3.80;;
11827;SDS011;5971;49.646;8.568;2023-08-08T00:19:59;4.40;;;2.72;;
11827;SDS011;5971;49.646;8.568;2023-08-08T00:23:00;6.82;;;3.30;;
11827;SDS011;5971;49.646;8.568;2023-08-08T00:26:02;5.05;;;3.38;;
11827;SDS011;5971;49.646;8.568;2023-08-08T00:29:03;5.32;;;4.10;;
11827;SDS011;5971;49.646;8.568;2023-08-08T00:32:04;6.00;;;3.22;;
11827;SDS011;5971;49.646;8.568;2023-08-08T00:35:06;6.03;;;3.20;;
11827;SDS011;5971;49.646;8.568;2023-08-08T00:38:08;7.72;;;3.65;;
11827;SDS011;5971;49.646;8.568;2023-08-08T00:41:09;7.38;;;4.38;;
11827;SDS011;5971;49.646;8.568;2023-08-08T00:44:10;9.38;;;4.50;;
11827;SDS011;5971;49.646;8.568;2023-08-08T00:47:11;7.22;;;4.13;;
11827;SDS011;5971;49.646;8.568;2023-08-08T00:50:13;6.07;;;4.45;;
11827;SDS011;5971;49.646;8.568;2023-08-08T00:53:15;7.45;;;3.80;;
11827;SDS011;5971;49.646;8.568;2023-08-08T00:56:16;6.50;;;3.85;;
11827;SDS011;5971;49.646;8.568;2023-08-08T00:59:18;7.20;;;3.50;;
11827;SDS011;5971;49.646;8.568;2023-08-08T01:02:20;8.18;;;4.00;;
11827;SDS011;5971;49.646;8.568;2023-08-08T01:05:21;6.40;;;3.65;;
11827;SDS011;5971;49.646;8.568;2023-08-08T01:08:24;5.75;;;4.18;;
11827;SDS011;5971;49.646;8.568;2023-08-08T01:11:27;6.25;;;3.10;;
11827;SDS011;5971;49.646;8.568;2023-08-08T01:14:30;6.60;;;3.50;;
11827;SDS011;5971;49.646;8.568;2023-08-08T01:17:33;4.78;;;3.83;;
11827;SDS011;5971;49.646;8.568;2023-08-08T01:20:36;5.88;;;3.80;;
11827;SDS011;5971;49.646;8.568;2023-08-08T01:23:46;5.47;;;3.28;;
11827;SDS011;5971;49.646;8.568;2023-08-08T01:26:47;7.65;;;3.70;;
11827;SDS011;5971;49.646;8.568;2023-08-08T01:29:49;6.07;;;3.53;;
11827;SDS011;5971;49.646;8.568;2023-08-08T01:32:50;5.65;;;3.17;;
11827;SDS011;5971;49.646;8.568;2023-08-08T01:36:03;5.90;;;3.70;;
11827;SDS011;5971;49.646;8.568;2023-08-08T01:39:05;6.75;;;3.03;;
11827;SDS011;5971;49.646;8.568;2023-08-08T01:42:10;6.85;;;3.38;;
11827;SDS011;5971;49.646;8.568;2023-08-08T01:45:12;7.07;;;3.42;;
11827;SDS011;5971;49.646;8.568;2023-08-08T01:48:14;4.85;;;3.15;;
11827;SDS011;5971;49.646;8.568;2023-08-08T01:51:15;7.10;;;3.88;;
11827;SDS011;5971;49.646;8.568;2023-08-08T01:54:17;5.40;;;3.50;;
11827;SDS011;5971;49.646;8.568;2023-08-08T01:57:18;6.25;;;4.32;;
11827;SDS011;5971;49.646;8.568;2023-08-08T02:00:20;5.75;;;3.60;;
11827;SDS011;5971;49.646;8.568;2023-08-08T02:03:21;5.68;;;3.42;;
11827;SDS011;5971;49.646;8.568;2023-08-08T02:06:23;5.93;;;3.60;;
11827;SDS011;5971;49.646;8.568;2023-08-08T02:09:24;5.75;;;3.38;;
11827;SDS011;5971;49.646;8.568;2023-08-08T02:12:26;6.30;;;3.90;;
11827;SDS011;5971;49.646;8.568;2023-08-08T02:15:27;6.97;;;4.07;;
11827;SDS011;5971;49.646;8.568;2023-08-08T02:18:28;7.40;;;4.28;;
11827;SDS011;5971;49.646;8.568;2023-08-08T02:21:30;7.60;;;3.90;;
11827;SDS011;5971;49.646;8.568;2023-08-08T02:24:31;7.97;;;4.30;;
11827;SDS011;5971;49.646;8.568;2023-08-08T02:27:32;7.35;;;4.07;;
11827;SDS011;5971;49.646;8.568;2023-08-08T02:30:34;9.95;;;4.07;;
11827;SDS011;5971;49.646;8.568;2023-08-08T02:33:35;7.55;;;4.03;;
11827;SDS011;5971;49.646;8.568;2023-08-08T02:36:36;7.90;;;4.00;;
11827;SDS011;5971;49.646;8.568;2023-08-08T02:39:38;6.82;;;3.72;;
11827;SDS011;5971;49.646;8.568;2023-08-08T02:42:39;7.20;;;3.97;;
11827;SDS011;5971;49.646;8.568;2023-08-08T02:45:40;9.73;;;3.90;;
11827;SDS011;5971;49.646;8.568;2023-08-08T02:48:42;8.63;;;3.67;;
11827;SDS011;5971;49.646;8.568;2023-08-08T02:51:43;7.95;;;4.70;;
11827;SDS011;5971;49.646;8.568;2023-08-08T02:54:44;7.90;;;3.50;;
11827;SDS011;5971;49.646;8.568;2023-08-08T02:57:46;7.63;;;3.45;;
11827;SDS011;5971;49.646;8.568;2023-08-08T03:00:47;8.25;;;4.20;;
11827;SDS011;5971;49.646;8.568;2023-08-08T03:03:49;7.30;;;4.47;;
11827;SDS011;5971;49.646;8.568;2023-08-08T03:06:50;8.95;;;3.85;;
11827;SDS011;5971;49.646;8.568;2023-08-08T03:09:51;9.85;;;3.50;;
11827;SDS011;5971;49.646;8.568;2023-08-08T03:12:53;9.25;;;3.72;;
11827;SDS011;5971;49.646;8.568;2023-08-08T03:15:54;7.28;;;3.35;;
11827;SDS011;5971;49.646;8.568;2023-08-08T03:18:58;7.43;;;3.55;;
11827;SDS011;5971;49.646;8.568;2023-08-08T03:21:59;8.60;;;3.47;;
11827;SDS011;5971;49.646;8.568;2023-08-08T03:25:01;8.15;;;4.05;;
11827;SDS011;5971;49.646;8.568;2023-08-08T03:28:05;8.85;;;3.58;;
11827;SDS011;5971;49.646;8.568;2023-08-08T03:31:06;7.32;;;3.75;;
11827;SDS011;5971;49.646;8.568;2023-08-08T03:34:08;15.30;;;3.70;;
11827;SDS011;5971;49.646;8.568;2023-08-08T03:37:10;11.52;;;4.78;;
11827;SDS011;5971;49.646;8.568;2023-08-08T03:40:11;8.25;;;4.22;;
11827;SDS011;5971;49.646;8.568;2023-08-08T03:43:15;12.68;;;4.05;;
11827;SDS011;5971;49.646;8.568;2023-08-08T03:46:16;10.98;;;4.38;;
11827;SDS011;5971;49.646;8.568;2023-08-08T03:49:17;11.48;;;4.25;;
11827;SDS011;5971;49.646;8.568;2023-08-08T03:52:19;7.80;;;3.65;;
11827;SDS011;5971;49.646;8.568;2023-08-08T03:55:20;10.55;;;3.72;;
11827;SDS011;5971;49.646;8.568;2023-08-08T03:58:22;7.95;;;4.30;;
11827;SDS011;5971;49.646;8.568;2023-08-08T04:01:23;9.40;;;3.83;;
11827;SDS011;5971;49.646;8.568;2023-08-08T04:04:24;7.38;;;3.80;;
11827;SDS011;5971;49.646;8.568;2023-08-08T04:07:26;9.35;;;3.70;;
11827;SDS011;5971;49.646;8.568;2023-08-08T04:10:27;9.25;;;4.43;;
11827;SDS011;5971;49.646;8.568;2023-08-08T04:13:28;9.55;;;5.15;;
11827;SDS011;5971;49.646;8.568;2023-08-08T04:16:30;10.38;;;4.50;;
11827;SDS011;5971;49.646;8.568;2023-08-08T04:19:31;8.40;;;3.85;;
11827;SDS011;5971;49.646;8.568;2023-08-08T04:22:32;9.43;;;4.00;;
11827;SDS011;5971;49.646;8.568;2023-08-08T04:25:34;11.95;;;4.78;;
11827;SDS011;5971;49.646;8.568;2023-08-08T04:28:35;8.27;;;4.25;;
11827;SDS011;5971;49.646;8.568;2023-08-08T04:31:36;13.18;;;5.07;;
11827;SDS011;5971;49.646;8.568;2023-08-08T04:34:38;11.65;;;5.35;;
11827;SDS011;5971;49.646;8.568;2023-08-08T04:37:39;8.57;;;4.10;;
11827;SDS011;5971;49.646;8.568;2023-08-08T04:40:41;15.63;;;4.32;;
11827;SDS011;5971;49.646;8.568;2023-08-08T04:43:42;10.25;;;3.95;;
11827;SDS011;5971;49.646;8.568;2023-08-08T04:46:43;8.90;;;4.40;;
11827;SDS011;5971;49.646;8.568;2023-08-08T04:49:45;11.02;;;3.97;;
11827;SDS011;5971;49.646;8.568;2023-08-08T04:52:46;12.63;;;5.50;;
11827;SDS011;5971;49.646;8.568;2023-08-08T04:55:47;8.52;;;4.18;;
11827;SDS011;5971;49.646;8.568;2023-08-08T04:58:49;10.77;;;4.72;;
11827;SDS011;5971;49.646;8.568;2023-08-08T05:01:50;10.23;;;4.45;;
11827;SDS011;5971;49.646;8.568;2023-08-08T05:04:51;11.40;;;4.38;;
11827;SDS011;5971;49.646;8.568;2023-08-08T05:07:53;11.25;;;5.18;;
11827;SDS011;5971;49.646;8.568;2023-08-08T05:10:54;13.15;;;4.70;;
11827;SDS011;5971;49.646;8.568;2023-08-08T05:13:57;11.63;;;4.43;;
11827;SDS011;5971;49.646;8.568;2023-08-08T05:16:58;9.63;;;4.47;;
11827;SDS011;5971;49.646;8.568;2023-08-08T05:19:59;10.95;;;4.07;;
11827;SDS011;5971;49.646;8.568;2023-08-08T05:23:01;10.48;;;4.05;;
11827;SDS011;5971;49.646;8.568;2023-08-08T05:26:02;10.75;;;4.50;;
11827;SDS011;5971;49.646;8.568;2023-08-08T05:29:04;9.10;;;4.40;;
11827;SDS011;5971;49.646;8.568;2023-08-08T05:32:06;8.95;;;4.18;;
11827;SDS011;5971;49.646;8.568;2023-08-08T05:35:08;9.57;;;4.30;;
11827;SDS011;5971;49.646;8.568;2023-08-08T05:38:09;7.72;;;4.05;;
11827;SDS011;5971;49.646;8.568;2023-08-08T05:41:10;7.72;;;4.32;;
11827;SDS011;5971;49.646;8.568;2023-08-08T05:44:12;12.32;;;4.32;;
11827;SDS011;5971;49.646;8.568;2023-08-08T05:47:13;7.45;;;3.63;;
11827;SDS011;5971;49.646;8.568;2023-08-08T05:50:14;8.00;;;3.55;;
11827;SDS011;5971;49.646;8.568;2023-08-08T05:53:16;6.97;;;3.40;;
11827;SDS011;5971;49.646;8.568;2023-08-08T05:56:17;7.13;;;3.22;;
11827;SDS011;5971;49.646;8.568;2023-08-08T05:59:19;6.13;;;3.13;;
11827;SDS011;5971;49.646;8.568;2023-08-08T06:02:20;7.85;;;3.28;;
11827;SDS011;5971;49.646;8.568;2023-08-08T06:05:22;7.18;;;2.83;;
11827;SDS011;5971;49.646;8.568;2023-08-08T06:08:24;6.20;;;3.03;;
11827;SDS011;5971;49.646;8.568;2023-08-08T06:11:25;5.47;;;2.85;;
11827;SDS011;5971;49.646;8.568;2023-08-08T06:14:27;5.53;;;2.92;;
11827;SDS011;5971;49.646;8.568;2023-08-08T06:17:28;6.45;;;2.60;;
11827;SDS011;5971;49.646;8.568;2023-08-08T06:20:29;5.90;;;2.78;;
11827;SDS011;5971;49.646;8.568;2023-08-08T06:23:31;6.03;;;2.80;;
11827;SDS011;5971;49.646;8.568;2023-08-08T06:26:32;5.60;;;2.90;;
11827;SDS011;5971;49.646;8.568;2023-08-08T06:29:34;6.38;;;3.03;;
11827;SDS011;5971;49.646;8.568;2023-08-08T06:32:35;6.20;;;2.55;;
11827;SDS011;5971;49.646;8.568;2023-08-08T06:35:38;5.05;;;2.40;;
11827;SDS011;5971;49.646;8.568;2023-08-08T06:38:40;5.68;;;2.30;;
11827;SDS011;5971;49.646;8.568;2023-08-08T06:41:41;6.18;;;2.63;;
11827;SDS011;5971;49.646;8.568;2023-08-08T06:44:43;4.90;;;2.60;;
11827;SDS011;5971;49.646;8.568;2023-08-08T06:47:45;3.72;;;2.03;;
11827;SDS011;5971;49.646;8.568;2023-08-08T06:50:46;5.63;;;2.00;;
11827;SDS011;5971;49.646;8.568;2023-08-08T06:53:47;6.53;;;2.50;;
11827;SDS011;5971;49.646;8.568;2023-08-08T06:56:49;3.50;;;1.90;;
11827;SDS011;5971;49.646;8.568;2023-08-08T06:59:50;3.47;;;1.90;;
11827;SDS011;5971;49.646;8.568;2023-08-08T07:02:53;4.05;;;1.83;;
11827;SDS011;5971;49.646;8.568;2023-08-08T07:05:55;3.97;;;1.83;;
11827;SDS011;5971;49.646;8.568;2023-08-08T07:08:56;4.32;;;1.50;;
11827;SDS011;5971;49.646;8.568;2023-08-08T07:11:58;2.83;;;1.50;;
11827;SDS011;5971;49.646;8.568;2023-08-08T07:15:00;3.63;;;1.67;;
11827;SDS011;5971;49.646;8.568;2023-08-08T07:18:01;3.05;;;1.48;;
11827;SDS011;5971;49.646;8.568;2023-08-08T07:21:03;4.75;;;1.70;;
11827;SDS011;5971;49.646;8.568;2023-08-08T07:24:04;4.43;;;1.60;;
11827;SDS011;5971;49.646;8.568;2023-08-08T07:27:05;2.65;;;1.63;;
11827;SDS011;5971;49.646;8.568;2023-08-08T07:30:07;2.92;;;1.50;;
11827;SDS011;5971;49.646;8.568;2023-08-08T07:33:09;3.45;;;1.50;;
11827;SDS011;5971;49.646;8.568;2023-08-08T07:36:10;2.92;;;1.30;;
11827;SDS011;5971;49.646;8.568;2023-08-08T07:39:11;3.05;;;1.65;;
11827;SDS011;5971;49.646;8.568;2023-08-08T07:42:13;3.40;;;1.70;;
11827;SDS011;5971;49.646;8.568;2023-08-08T07:45:14;1.95;;;1.63;;
11827;SDS011;5971;49.646;8.568;2023-08-08T07:48:15;2.67;;;1.25;;
11827;SDS011;5971;49.646;8.568;2023-08-08T07:51:17;2.67;;;1.10;;
11827;SDS011;5971;49.646;8.568;2023-08-08T07:54:18;2.42;;;1.40;;
11827;SDS011;5971;49.646;8.568;2023-08-08T07:57:19;2.40;;;1.50;;
11827;SDS011;5971;49.646;8.568;2023-08-08T08:00:21;2.60;;;1.20;;
11827;SDS011;5971;49.646;8.568;2023-08-08T08:03:23;2.42;;;1.42;;
11827;SDS011;5971;49.646;8.568;2023-08-08T08:06:24;2.35;;;1.00;;
11827;SDS011;5971;49.646;8.568;2023-08-08T08:09:25;2.33;;;1.20;;
11827;SDS011;5971;49.646;8.568;2023-08-08T08:12:27;3.25;;;1.25;;
11827;SDS011;5971;49.646;8.568;2023-08-08T08:15:28;2.50;;;1.08;;
11827;SDS011;5971;49.646;8.568;2023-08-08T08:18:30;2.78;;;1.23;;
11827;SDS011;5971;49.646;8.568;2023-08-08T08:21:31;3.00;;;1.10;;
11827;SDS011;5971;49.646;8.568;2023-08-08T08:24:32;2.08;;;1.10;;
11827;SDS011;5971;49.646;8.568;2023-08-08T08:27:37;4.30;;;1.15;;
11827;SDS011;5971;49.646;8.568;2023-08-08T08:30:38;3.50;;;1.02;;
11827;SDS011;5971;49.646;8.568;2023-08-08T08:33:40;2.90;;;1.42;;
11827;SDS011;5971;49.646;8.568;2023-08-08T08:36:41;1.95;;;1.00;;
11827;SDS011;5971;49.646;8.568;2023-08-08T08:39:42;5.63;;;1.98;;
11827;SDS011;5971;49.646;8.568;2023-08-08T08:42:44;3.03;;;0.90;;
11827;SDS011;5971;49.646;8.568;2023-08-08T08:45:48;3.13;;;1.10;;
11827;SDS011;5971;49.646;8.568;2023-08-08T08:48:51;3.15;;;1.13;;
11827;SDS011;5971;49.646;8.568;2023-08-08T08:51:52;1.83;;;1.05;;
11827;SDS011;5971;49.646;8.568;2023-08-08T08:54:54;3.42;;;1.10;;
11827;SDS011;5971;49.646;8.568;2023-08-08T08:57:55;2.60;;;0.98;;
11827;SDS011;5971;49.646;8.568;2023-08-08T09:00:57;2.10;;;1.00;;
11827;SDS011;5971;49.646;8.568;2023-08-08T09:03:59;4.43;;;0.90;;
11827;SDS011;5971;49.646;8.568;2023-08-08T09:07:01;1.50;;;0.80;;
11827;SDS011;5971;49.646;8.568;2023-08-08T09:10:02;2.55;;;1.55;;
11827;SDS011;5971;49.646;8.568;2023-08-08T09:13:04;3.85;;;1.00;;
11827;SDS011;5971;49.646;8.568;2023-08-08T09:16:06;2.75;;;1.20;;
11827;SDS011;5971;49.646;8.568;2023-08-08T09:19:07;3.25;;;1.20;;
11827;SDS011;5971;49.646;8.568;2023-08-08T09:22:09;2.53;;;0.80;;
11827;SDS011;5971;49.646;8.568;2023-08-08T09:25:10;2.42;;;1.10;;
11827;SDS011;5971;49.646;8.568;2023-08-08T09:28:11;2.42;;;1.25;;
11827;SDS011;5971;49.646;8.568;2023-08-08T09:31:13;2.53;;;1.20;;
11827;SDS011;5971;49.646;8.568;2023-08-08T09:34:14;1.77;;;0.98;;
11827;SDS011;5971;49.646;8.568;2023-08-08T09:37:16;3.22;;;1.42;;
11827;SDS011;5971;49.646;8.568;2023-08-08T09:40:18;2.63;;;1.48;;
11827;SDS011;5971;49.646;8.568;2023-08-08T09:43:19;2.08;;;1.00;;
11827;SDS011;5971;49.646;8.568;2023-08-08T09:46:21;2.10;;;0.93;;
11827;SDS011;5971;49.646;8.568;2023-08-08T09:49:23;3.00;;;1.73;;
11827;SDS011;5971;49.646;8.568;2023-08-08T09:52:24;2.83;;;1.48;;
11827;SDS011;5971;49.646;8.568;2023-08-08T09:55:26;2.30;;;1.10;;
11827;SDS011;5971;49.646;8.568;2023-08-08T09:58:28;2.40;;;1.00;;
11827;SDS011;5971;49.646;8.568;2023-08-08T10:01:30;3.25;;;1.20;;
11827;SDS011;5971;49.646;8.568;2023-08-08T10:04:32;5.68;;;1.35;;
11827;SDS011;5971;49.646;8.568;2023-08-08T10:07:34;3.97;;;1.25;;
11827;SDS011;5971;49.646;8.568;2023-08-08T10:10:36;3.00;;;1.05;;
11827;SDS011;5971;49.646;8.568;2023-08-08T10:13:46;4.22;;;1.35;;
11827;SDS011;5971;49.646;8.568;2023-08-08T10:16:47;2.42;;;1.10;;
11827;SDS011;5971;49.646;8.568;2023-08-08T10:19:51;2.50;;;1.58;;
11827;SDS011;5971;49.646;8.568;2023-08-08T10:22:53;2.75;;;1.50;;
11827;SDS011;5971;49.646;8.568;2023-08-08T10:25:59;3.72;;;1.40;;
11827;SDS011;5971;49.646;8.568;2023-08-08T10:29:00;5.00;;;1.70;;
11827;SDS011;5971;49.646;8.568;2023-08-08T10:32:06;4.53;;;1.50;;
11827;SDS011;5971;49.646;8.568;2023-08-08T10:35:08;2.97;;;1.33;;
11827;SDS011;5971;49.646;8.568;2023-08-08T10:38:10;7.05;;;1.67;;
11827;SDS011;5971;49.646;8.568;2023-08-08T10:41:15;3.05;;;1.80;;
11827;SDS011;5971;49.646;8.568;2023-08-08T10:44:25;5.53;;;1.55;;
11827;SDS011;5971;49.646;8.568;2023-08-08T10:47:31;2.67;;;1.20;;
11827;SDS011;5971;49.646;8.568;2023-08-08T10:50:32;3.42;;;1.25;;
11827;SDS011;5971;49.646;8.568;2023-08-08T10:53:39;1.77;;;1.05;;
11827;SDS011;5971;49.646;8.568;2023-08-08T10:56:40;5.22;;;1.40;;
11827;SDS011;5971;49.646;8.568;2023-08-08T10:59:42;2.42;;;1.63;;
11827;SDS011;5971;49.646;8.568;2023-08-08T11:02:44;3.05;;;1.10;;
11827;SDS011;5971;49.646;8.568;2023-08-08T11:05:45;3.60;;;1.20;;
11827;SDS011;5971;49.646;8.568;2023-08-08T11:08:48;2.75;;;1.60;;
11827;SDS011;5971;49.646;8.568;2023-08-08T11:11:49;2.28;;;1.50;;
11827;SDS011;5971;49.646;8.568;2023-08-08T11:14:51;2.92;;;1.42;;
11827;SDS011;5971;49.646;8.568;2023-08-08T11:17:55;2.30;;;1.13;;
11827;SDS011;5971;49.646;8.568;2023-08-08T11:20:57;3.30;;;1.40;;
11827;SDS011;5971;49.646;8.568;2023-08-08T11:24:17;3.65;;;1.25;;
11827;SDS011;5971;49.646;8.568;2023-08-08T11:27:18;3.85;;;1.10;;
11827;SDS011;5971;49.646;8.568;2023-08-08T11:30:23;3.15;;;1.10;;
11827;SDS011;5971;49.646;8.568;2023-08-08T11:33:24;3.53;;;1.30;;
11827;SDS011;5971;49.646;8.568;2023-08-08T11:36:29;2.78;;;1.20;;
11827;SDS011;5971;49.646;8.568;2023-08-08T11:39:30;2.25;;;1.48;;
11827;SDS011;5971;49.646;8.568;2023-08-08T11:42:32;3.08;;;1.48;;
11827;SDS011;5971;49.646;8.568;2023-08-08T11:45:33;2.30;;;1.48;;
11827;SDS011;5971;49.646;8.568;2023-08-08T11:48:35;2.80;;;1.40;;
11827;SDS011;5971;49.646;8.568;2023-08-08T11:51:36;3.33;;;1.30;;
11827;SDS011;5971;49.646;8.568;2023-08-08T11:54:38;3.20;;;1.88;;
11827;SDS011;5971;49.646;8.568;2023-08-08T11:57:40;3.30;;;1.50;;
11827;SDS011;5971;49.646;8.568;2023-08-08T12:00:42;2.78;;;1.02;;
11827;SDS011;5971;49.646;8.568;2023-08-08T12:03:45;2.92;;;1.17;;
11827;SDS011;5971;49.646;8.568;2023-08-08T12:06:47;2.08;;;1.13;;
11827;SDS011;5971;49.646;8.568;2023-08-08T12:09:48;2.22;;;1.60;;
11827;SDS011;5971;49.646;8.568;2023-08-08T12:12:56;3.22;;;1.50;;
11827;SDS011;5971;49.646;8.568;2023-08-08T12:15:59;3.20;;;1.45;;
11827;SDS011;5971;49.646;8.568;2023-08-08T12:19:02;2.83;;;1.17;;
11827;SDS011;5971;49.646;8.568;2023-08-08T12:22:03;3.15;;;1.63;;
11827;SDS011;5971;49.646;8.568;2023-08-08T12:25:05;2.30;;;1.10;;
11827;SDS011;5971;49.646;8.568;2023-08-08T12:28:06;2.22;;;1.05;;
11827;SDS011;5971;49.646;8.568;2023-08-08T12:31:08;2.83;;;1.13;;
11827;SDS011;5971;49.646;8.568;2023-08-08T12:34:09;2.45;;;1.10;;
11827;SDS011;5971;49.646;8.568;2023-08-08T12:37:11;2.72;;;1.27;;
11827;SDS011;5971;49.646;8.568;2023-08-08T12:40:12;2.45;;;1.10;;
11827;SDS011;5971;49.646;8.568;2023-08-08T12:43:14;2.50;;;1.20;;
11827;SDS011;5971;49.646;8.568;2023-08-08T12:46:19;3.63;;;1.15;;
11827;SDS011;5971;49.646;8.568;2023-08-08T12:49:20;2.83;;;1.20;;
11827;SDS011;5971;49.646;8.568;2023-08-08T12:52:22;3.03;;;1.50;;
11827;SDS011;5971;49.646;8.568;2023-08-08T12:55:25;2.40;;;1.58;;
11827;SDS011;5971;49.646;8.568;2023-08-08T12:58:27;2.55;;;1.10;;
11827;SDS011;5971;49.646;8.568;2023-08-08T13:01:28;2.92;;;1.40;;
11827;SDS011;5971;49.646;8.568;2023-08-08T13:04:29;1.77;;;1.17;;
11827;SDS011;5971;49.646;8.568;2023-08-08T13:07:31;3.22;;;1.60;;
11827;SDS011;5971;49.646;8.568;2023-08-08T13:10:33;2.47;;;1.52;;
11827;SDS011;5971;49.646;8.568;2023-08-08T13:13:34;2.55;;;1.10;;
11827;SDS011;5971;49.646;8.568;2023-08-08T13:16:35;4.63;;;1.52;;
11827;SDS011;5971;49.646;8.568;2023-08-08T13:19:37;2.75;;;1.63;;
11827;SDS011;5971;49.646;8.568;2023-08-08T13:22:39;2.33;;;1.00;;
11827;SDS011;5971;49.646;8.568;2023-08-08T13:25:40;3.25;;;1.77;;
11827;SDS011;5971;49.646;8.568;2023-08-08T13:28:42;2.97;;;1.80;;
11827;SDS011;5971;49.646;8.568;2023-08-08T13:31:44;3.15;;;1.80;;
11827;SDS011;5971;49.646;8.568;2023-08-08T13:34:45;2.65;;;1.13;;
11827;SDS011;5971;49.646;8.568;2023-08-08T13:37:47;2.40;;;1.15;;
11827;SDS011;5971;49.646;8.568;2023-08-08T13:40:53;2.58;;;0.93;;
11827;SDS011;5971;49.646;8.568;2023-08-08T13:43:55;2.17;;;1.30;;
11827;SDS011;5971;49.646;8.568;2023-08-08T13:46:56;2.15;;;0.80;;
11827;SDS011;5971;49.646;8.568;2023-08-08T13:49:59;2.15;;;1.08;;
11827;SDS011;5971;49.646;8.568;2023-08-08T13:53:00;2.38;;;1.08;;
11827;SDS011;5971;49.646;8.568;2023-08-08T13:56:01;2.10;;;1.00;;
11827;SDS011;5971;49.646;8.568;2023-08-08T13:59:03;2.85;;;1.08;;
11827;SDS011;5971;49.646;8.568;2023-08-08T14:02:05;2.95;;;1.23;;
11827;SDS011;5971;49.646;8.568;2023-08-08T14:05:07;1.98;;;1.42;;
11827;SDS011;5971;49.646;8.568;2023-08-08T14:08:09;4.15;;;1.30;;
11827;SDS011;5971;49.646;8.568;2023-08-08T14:11:11;2.90;;;1.15;;
11827;SDS011;5971;49.646;8.568;2023-08-08T14:14:12;2.50;;;1.00;;
11827;SDS011;5971;49.646;8.568;2023-08-08T14:17:13;1.85;;;0.90;;
11827;SDS011;5971;49.646;8.568;2023-08-08T14:20:15;2.15;;;0.90;;
11827;SDS011;5971;49.646;8.568;2023-08-08T14:23:16;3.03;;;1.33;;
11827;SDS011;5971;49.646;8.568;2023-08-08T14:26:18;3.72;;;1.20;;
11827;SDS011;5971;49.646;8.568;2023-08-08T14:29:19;2.10;;;1.05;;
11827;SDS011;5971;49.646;8.568;2023-08-08T14:32:20;4.05;;;1.10;;
11827;SDS011;5971;49.646;8.568;2023-08-08T14:35:22;1.75;;;1.00;;
11827;SDS011;5971;49.646;8.568;2023-08-08T14:38:24;2.75;;;1.02;;
11827;SDS011;5971;49.646;8.568;2023-08-08T14:41:25;2.42;;;1.10;;
11827;SDS011;5971;49.646;8.568;2023-08-08T14:44:27;1.77;;;1.10;;
11827;SDS011;5971;49.646;8.568;2023-08-08T14:47:28;3.10;;;1.10;;
11827;SDS011;5971;49.646;8.568;2023-08-08T14:50:30;1.85;;;0.98;;
11827;SDS011;5971;49.646;8.568;2023-08-08T14:53:31;2.92;;;1.27;;
11827;SDS011;5971;49.646;8.568;2023-08-08T14:56:33;3.10;;;1.33;;
11827;SDS011;5971;49.646;8.568;2023-08-08T14:59:34;3.65;;;2.03;;
11827;SDS011;5971;49.646;8.568;2023-08-08T15:02:35;2.72;;;1.10;;
11827;SDS011;5971;49.646;8.568;2023-08-08T15:05:37;2.63;;;1.00;;
11827;SDS011;5971;49.646;8.568;2023-08-08T15:08:38;3.42;;;1.10;;
11827;SDS011;5971;49.646;8.568;2023-08-08T15:11:40;2.88;;;1.10;;
11827;SDS011;5971;49.646;8.568;2023-08-08T15:14:41;2.28;;;1.02;;
11827;SDS011;5971;49.646;8.568;2023-08-08T15:17:43;1.98;;;1.10;;
11827;SDS011;5971;49.646;8.568;2023-08-08T15:20:45;2.20;;;1.30;;
11827;SDS011;5971;49.646;8.568;2023-08-08T15:23:46;2.15;;;1.20;;
11827;SDS011;5971;49.646;8.568;2023-08-08T15:26:48;2.78;;;1.08;;
11827;SDS011;5971;49.646;8.568;2023-08-08T15:29:49;1.95;;;0.93;;
11827;SDS011;5971;49.646;8.568;2023-08-08T15:32:51;3.75;;;1.20;;
11827;SDS011;5971;49.646;8.568;2023-08-08T15:35:52;2.97;;;1.10;;
11827;SDS011;5971;49.646;8.568;2023-08-08T15:38:53;4.20;;;1.80;;
11827;SDS011;5971;49.646;8.568;2023-08-08T15:41:55;3.15;;;1.13;;
11827;SDS011;5971;49.646;8.568;2023-08-08T15:44:56;4.03;;;1.23;;
11827;SDS011;5971;49.646;8.568;2023-08-08T15:47:58;1.90;;;1.10;;
11827;SDS011;5971;49.646;8.568;2023-08-08T15:50:59;3.92;;;1.40;;
11827;SDS011;5971;49.646;8.568;2023-08-08T15:54:01;3.75;;;1.40;;
11827;SDS011;5971;49.646;8.568;2023-08-08T15:57:04;3.60;;;1.27;;
11827;SDS011;5971;49.646;8.568;2023-08-08T16:00:08;2.95;;;1.70;;
11827;SDS011;5971;49.646;8.568;2023-08-08T16:03:11;3.65;;;1.20;;
11827;SDS011;5971;49.646;8.568;2023-08-08T16:06:13;2.78;;;1.20;;
11827;SDS011;5971;49.646;8.568;2023-08-08T16:09:14;2.90;;;1.80;;
11827;SDS011;5971;49.646;8.568;2023-08-08T16:12:16;3.22;;;1.42;;
11827;SDS011;5971;49.646;8.568;2023-08-08T16:15:18;3.67;;;1.58;;
11827;SDS011;5971;49.646;8.568;2023-08-08T16:18:19;3.03;;;1.60;;
11827;SDS011;5971;49.646;8.568;2023-08-08T16:21:20;4.85;;;1.65;;
11827;SDS011;5971;49.646;8.568;2023-08-08T16:24:22;4.03;;;1.92;;
11827;SDS011;5971;49.646;8.568;2023-08-08T16:27:23;3.40;;;1.77;;
11827;SDS011;5971;49.646;8.568;2023-08-08T16:30:25;2.75;;;1.40;;
11827;SDS011;5971;49.646;8.568;2023-08-08T16:33:26;4.32;;;1.75;;
11827;SDS011;5971;49.646;8.568;2023-08-08T16:36:28;2.97;;;1.45;;
11827;SDS011;5971;49.646;8.568;2023-08-08T16:39:30;4.18;;;2.10;;
11827;SDS011;5971;49.646;8.568;2023-08-08T16:42:31;2.70;;;1.40;;
11827;SDS011;5971;49.646;8.568;2023-08-08T16:45:32;2.70;;;1.40;;
11827;SDS011;5971;49.646;8.568;2023-08-08T16:48:34;4.07;;;1.45;;
11827;SDS011;5971;49.646;8.568;2023-08-08T16:51:36;3.75;;;1.50;;
11827;SDS011;5971;49.646;8.568;2023-08-08T16:54:37;2.78;;;1.50;;
11827;SDS011;5971;49.646;8.568;2023-08-08T16:57:38;2.78;;;1.50;;
11827;SDS011;5971;49.646;8.568;2023-08-08T17:00:40;3.60;;;1.58;;
11827;SDS011;5971;49.646;8.568;2023-08-08T17:03:42;2.85;;;1.45;;
11827;SDS011;5971;49.646;8.568;2023-08-08T17:06:44;3.88;;;1.60;;
11827;SDS011;5971;49.646;8.568;2023-08-08T17:09:45;2.88;;;1.45;;
11827;SDS011;5971;49.646;8.568;2023-08-08T17:12:46;3.13;;;1.50;;
11827;SDS011;5971;49.646;8.568;2023-08-08T17:15:48;3.22;;;1.50;;
11827;SDS011;5971;49.646;8.568;2023-08-08T17:18:50;3.10;;;1.40;;
11827;SDS011;5971;49.646;8.568;2023-08-08T17:21:53;3.22;;;1.50;;
11827;SDS011;5971;49.646;8.568;2023-08-08T17:24:57;2.45;;;1.52;;
11827;SDS011;5971;49.646;8.568;2023-08-08T17:27:58;3.40;;;1.52;;
11827;SDS011;5971;49.646;8.568;2023-08-08T17:31:00;3.10;;;1.63;;
11827;SDS011;5971;49.646;8.568;2023-08-08T17:34:01;3.95;;;1.50;;
11827;SDS011;5971;49.646;8.568;2023-08-08T17:37:07;3.92;;;1.52;;
11827;SDS011;5971;49.646;8.568;2023-08-08T17:40:08;3.58;;;1.77;;
11827;SDS011;5971;49.646;8.568;2023-08-08T17:43:10;4.40;;;1.60;;
11827;SDS011;5971;49.646;8.568;2023-08-08T17:46:13;4.28;;;1.60;;
11827;SDS011;5971;49.646;8.568;2023-08-08T17:49:14;4.82;;;1.60;;
11827;SDS011;5971;49.646;8.568;2023-08-08T17:52:25;4.68;;;1.80;;
11827;SDS011;5971;49.646;8.568;2023-08-08T17:55:29;6.30;;;1.67;;
11827;SDS011;5971;49.646;8.568;2023-08-08T17:58:31;3.28;;;1.70;;
11827;SDS011;5971;49.646;8.568;2023-08-08T18:01:32;3.42;;;1.45;;
11827;SDS011;5971;49.646;8.568;2023-08-08T18:04:34;4.22;;;2.03;;
11827;SDS011;5971;49.646;8.568;2023-08-08T18:07:35;3.08;;;1.73;;
11827;SDS011;5971;49.646;8.568;2023-08-08T18:10:36;3.67;;;1.90;;
11827;SDS011;5971;49.646;8.568;2023-08-08T18:13:38;3.60;;;1.70;;
11827;SDS011;5971;49.646;8.568;2023-08-08T18:16:40;4.30;;;1.63;;
11827;SDS011;5971;49.646;8.568;2023-08-08T18:19:42;3.47;;;1.67;;
11827;SDS011;5971;49.646;8.568;2023-08-08T18:22:44;3.58;;;1.85;;
11827;SDS011;5971;49.646;8.568;2023-08-08T18:25:45;4.05;;;1.80;;
11827;SDS011;5971;49.646;8.568;2023-08-08T18:28:46;3.67;;;1.70;;
11827;SDS011;5971;49.646;8.568;2023-08-08T18:31:48;3.45;;;1.70;;